Time;durP1;ratioP1;P1;durP2;ratioP2;P2;SDS_P1;SDS_P2;PMS_P1;PMS_P2;Temp;Humidity;BMP_temperature;BMP_pressure;BME280_temperature;BME280_humidity;BME280_pressure;Samples;Min_cycle;Max_cycle;Signal;HPM_P1;HPM_P2
2023/04/01 00:01:56;;;;;;;4.22;3.28;;;12.30;75.70;;;;;;4980108;28;20566;-76
2023/04/01 00:04:21;;;;;;;5.03;3.33;;;12.30;75.80;;;;;;4974840;28;20182;-76
2023/04/01 00:06:47;;;;;;;5.63;3.25;;;12.30;75.90;;;;;;4978684;28;20570;-75
2023/04/01 00:09:13;;;;;;;5.45;3.83;;;12.30;75.90;;;;;;4985157;28;20209;-76
2023/04/01 00:11:39;;;;;;;6.20;3.42;;;12.20;75.80;;;;;;4978827;28;20247;-76
2023/04/01 00:14:07;;;;;;;3.92;3.58;;;12.20;75.90;;;;;;4978141;28;20251;-76
2023/04/01 00:16:33;;;;;;;8.18;4.28;;;12.20;76.00;;;;;;4979169;28;20182;-76
2023/04/01 00:18:59;;;;;;;5.15;3.75;;;12.20;76.00;;;;;;4974953;28;20212;-77
2023/04/01 00:21:26;;;;;;;7.38;4.47;;;12.20;76.20;;;;;;4978693;28;20221;-77
2023/04/01 00:23:51;;;;;;;8.55;4.30;;;12.20;76.20;;;;;;4981103;28;20600;-77
2023/04/01 00:26:20;;;;;;;7.68;4.70;;;12.20;76.30;;;;;;4977876;28;20170;-77
2023/04/01 00:28:46;;;;;;;6.80;4.35;;;12.20;76.20;;;;;;4976524;28;20326;-79
2023/04/01 00:31:12;;;;;;;4.05;3.28;;;12.20;75.80;;;;;;4976462;28;20185;-77
2023/04/01 00:33:40;;;;;;;5.97;3.42;;;12.10;75.30;;;;;;4982805;28;20573;-77
2023/04/01 00:36:17;;;;;;;3.17;2.88;;;12.10;75.00;;;;;;4973988;28;20182;-77
2023/04/01 00:38:44;;;;;;;3.42;3.05;;;12.00;74.90;;;;;;4976364;28;20189;-77
2023/04/01 00:41:15;;;;;;;4.30;3.85;;;12.00;75.40;;;;;;4976719;28;20207;-77
2023/04/01 00:43:47;;;;;;;3.88;3.53;;;12.00;75.50;;;;;;4975233;28;20721;-76
2023/04/01 00:46:12;;;;;;;4.60;4.28;;;11.90;75.80;;;;;;4976863;28;20565;-77
2023/04/01 00:48:43;;;;;;;6.90;4.75;;;11.90;76.50;;;;;;4977488;28;20197;-77
2023/04/01 00:51:17;;;;;;;5.22;3.88;;;11.90;76.60;;;;;;4980516;28;20193;-77
2023/04/01 00:53:46;;;;;;;5.60;3.83;;;11.80;76.70;;;;;;4981879;28;20576;-77
2023/04/01 00:56:17;;;;;;;7.22;4.38;;;11.80;77.10;;;;;;4979902;28;20193;-77
2023/04/01 00:58:58;;;;;;;6.50;4.18;;;11.70;77.10;;;;;;4978183;28;20182;-77
2023/04/01 01:01:24;;;;;;;5.28;3.75;;;11.70;77.00;;;;;;4976899;28;20298;-76
2023/04/01 01:03:49;;;;;;;3.92;3.42;;;11.70;77.00;;;;;;4978914;28;20228;-76
2023/04/01 01:06:38;;;;;;;5.57;3.72;;;11.60;76.30;;;;;;4978470;28;20185;-77
2023/04/01 01:09:32;;;;;;;4.07;3.42;;;11.60;76.60;;;;;;4978686;28;20196;-78
2023/04/01 01:12:20;;;;;;;5.40;2.85;;;11.50;76.10;;;;;;4981918;28;20186;-76
2023/04/01 01:15:13;;;;;;;4.03;3.22;;;11.40;77.40;;;;;;4985412;28;20190;-76
2023/04/01 01:18:05;;;;;;;2.63;2.42;;;11.30;77.60;;;;;;4981522;28;20178;-76
2023/04/01 01:20:58;;;;;;;3.67;2.78;;;11.20;77.30;;;;;;4926925;29;20224;-76
2023/04/01 01:23:42;;;;;;;3.33;3.13;;;11.20;77.20;;;;;;4930553;29;20187;-76
2023/04/01 01:26:22;;;;;;;2.45;2.33;;;11.10;78.00;;;;;;4930439;29;20223;-76
2023/04/01 01:28:56;;;;;;;3.08;2.42;;;11.00;78.20;;;;;;4929687;29;20184;-76
2023/04/01 01:31:44;;;;;;;3.88;1.88;;;11.00;78.00;;;;;;4930070;29;22098;-76
2023/04/01 01:34:35;;;;;;;2.13;2.00;;;11.10;77.60;;;;;;4929493;29;20209;-76
2023/04/01 01:37:08;;;;;;;1.75;1.70;;;11.00;78.60;;;;;;4929342;29;20199;-78
2023/04/01 01:39:35;;;;;;;3.13;2.25;;;11.00;78.70;;;;;;4929188;29;20219;-77
2023/04/01 01:42:05;;;;;;;2.75;2.20;;;10.90;78.70;;;;;;4927588;29;20179;-77
2023/04/01 01:44:33;;;;;;;2.13;2.03;;;10.90;78.60;;;;;;4929613;29;20996;-77
2023/04/01 01:47:00;;;;;;;5.47;2.20;;;10.80;78.50;;;;;;4926587;29;20198;-78
2023/04/01 01:49:30;;;;;;;1.60;1.50;;;10.80;78.20;;;;;;4929113;29;20286;-76
2023/04/01 01:51:56;;;;;;;3.13;2.20;;;10.90;77.70;;;;;;4912524;29;20308;-77
2023/04/01 01:54:22;;;;;;;1.83;1.73;;;10.90;77.40;;;;;;4928324;29;20183;-76
2023/04/01 01:56:52;;;;;;;7.15;2.63;;;10.90;77.60;;;;;;4938990;28;20713;-78
2023/04/01 01:59:20;;;;;;;2.28;2.08;;;10.90;77.70;;;;;;4980541;28;20206;-77
2023/04/01 02:01:50;;;;;;;2.30;1.98;;;11.00;77.90;;;;;;4977824;28;20189;-77
2023/04/01 02:04:17;;;;;;;1.85;1.75;;;11.00;78.20;;;;;;4982375;28;20567;-77
2023/04/01 02:06:50;;;;;;;1.98;1.88;;;11.00;78.40;;;;;;4992375;28;20186;-77
2023/04/01 02:09:16;;;;;;;4.35;2.08;;;11.00;77.90;;;;;;4982889;28;20698;-77
2023/04/01 02:11:48;;;;;;;2.80;1.48;;;11.00;77.80;;;;;;4981111;28;20182;-76
2023/04/01 02:14:16;;;;;;;1.98;1.70;;;11.10;77.50;;;;;;4982424;28;20182;-77
2023/04/01 02:16:53;;;;;;;2.55;1.67;;;11.10;76.90;;;;;;4983775;28;20572;-77
2023/04/01 02:19:22;;;;;;;2.90;1.77;;;11.20;77.20;;;;;;4978276;28;20600;-77
2023/04/01 02:21:52;;;;;;;2.13;1.67;;;11.20;77.30;;;;;;4979186;28;20174;-77
2023/04/01 02:24:22;;;;;;;2.53;1.58;;;11.20;77.30;;;;;;4980480;28;20178;-77
2023/04/01 02:26:50;;;;;;;2.35;1.40;;;11.30;77.60;;;;;;4979000;28;20186;-77
2023/04/01 02:29:19;;;;;;;2.47;1.90;;;11.30;77.60;;;;;;4982576;28;21478;-77
2023/04/01 02:31:45;;;;;;;2.25;1.50;;;11.30;77.50;;;;;;4980477;28;20198;-77
2023/04/01 02:34:11;;;;;;;1.50;1.40;;;11.30;77.60;;;;;;4975704;28;20181;-76
2023/04/01 02:36:37;;;;;;;1.98;1.90;;;11.30;77.60;;;;;;4980408;28;20626;-77
2023/04/01 02:39:04;;;;;;;1.70;1.70;;;11.30;77.70;;;;;;4978610;28;20186;-78
2023/04/01 02:41:30;;;;;;;1.70;1.60;;;11.30;78.00;;;;;;4983260;28;20189;-77
2023/04/01 02:43:58;;;;;;;2.55;2.28;;;11.30;77.80;;;;;;4978899;28;20181;-77
2023/04/01 02:46:24;;;;;;;4.43;2.22;;;11.40;77.60;;;;;;4979807;28;20320;-77
2023/04/01 02:48:50;;;;;;;3.17;2.20;;;11.40;77.50;;;;;;4979562;28;20221;-76
2023/04/01 02:51:15;;;;;;;2.28;1.77;;;11.40;77.80;;;;;;4980748;28;20676;-76
2023/04/01 02:53:41;;;;;;;1.75;1.70;;;11.40;78.00;;;;;;4983667;28;20184;-76
2023/04/01 02:56:07;;;;;;;3.08;1.63;;;11.40;77.80;;;;;;4981504;28;20201;-77
2023/04/01 02:58:32;;;;;;;2.35;2.15;;;11.40;77.80;;;;;;4976547;28;20189;-77
2023/04/01 03:00:58;;;;;;;6.97;1.90;;;11.40;78.00;;;;;;4980874;28;20210;-77
2023/04/01 03:03:24;;;;;;;1.48;1.40;;;11.50;78.00;;;;;;4977267;28;20183;-77
2023/04/01 03:05:50;;;;;;;1.65;1.55;;;11.40;78.10;;;;;;4980389;28;20553;-78
2023/04/01 03:08:16;;;;;;;3.22;2.17;;;11.50;78.30;;;;;;4983134;28;20248;-77
2023/04/01 03:10:41;;;;;;;2.80;2.60;;;11.50;77.40;;;;;;4984836;28;20181;-77
2023/04/01 03:13:07;;;;;;;3.47;3.17;;;11.50;77.80;;;;;;4978862;28;20225;-77
2023/04/01 03:15:33;;;;;;;3.30;3.03;;;11.50;77.90;;;;;;4979533;28;20542;-78
2023/04/01 03:17:58;;;;;;;2.55;2.42;;;11.50;77.90;;;;;;4981193;28;20265;-77
2023/04/01 03:20:24;;;;;;;3.80;3.30;;;11.50;77.80;;;;;;4976892;28;20217;-77
2023/04/01 03:22:50;;;;;;;3.38;3.08;;;11.50;78.00;;;;;;4979447;28;20186;-77
2023/04/01 03:25:15;;;;;;;5.65;3.15;;;11.50;78.00;;;;;;4983333;28;20186;-77
2023/04/01 03:27:41;;;;;;;4.07;3.83;;;11.50;77.60;;;;;;4982333;28;20191;-76
2023/04/01 03:30:08;;;;;;;3.80;3.47;;;11.60;78.20;;;;;;4977787;28;20205;-77
2023/04/01 03:32:34;;;;;;;3.72;2.97;;;11.50;78.20;;;;;;4983327;28;20239;-77
2023/04/01 03:34:59;;;;;;;4.00;2.60;;;11.60;77.50;;;;;;4976858;28;20902;-77
2023/04/01 03:37:25;;;;;;;2.70;2.50;;;11.50;78.00;;;;;;4979831;28;20204;-77
2023/04/01 03:39:51;;;;;;;2.03;2.03;;;11.50;78.00;;;;;;4979957;28;20883;-76
2023/04/01 03:42:17;;;;;;;3.00;2.40;;;11.50;77.80;;;;;;4980602;28;20639;-76
2023/04/01 03:44:43;;;;;;;3.38;2.47;;;11.50;78.10;;;;;;4978992;28;20260;-77
2023/04/01 03:47:09;;;;;;;3.25;2.97;;;11.50;78.50;;;;;;4981062;28;20177;-77
2023/04/01 03:49:35;;;;;;;4.75;2.97;;;11.40;78.70;;;;;;4981070;28;20249;-76
2023/04/01 03:52:01;;;;;;;6.05;3.38;;;11.40;79.10;;;;;;4981823;28;20190;-77
2023/04/01 03:54:26;;;;;;;3.13;2.88;;;11.40;79.10;;;;;;4981788;28;20616;-77
2023/04/01 03:56:52;;;;;;;4.80;2.60;;;11.40;79.50;;;;;;4980281;28;20186;-76
2023/04/01 03:59:18;;;;;;;2.85;2.70;;;11.30;79.70;;;;;;4977578;28;20210;-77
2023/04/01 04:01:45;;;;;;;1.50;1.50;;;11.30;79.80;;;;;;4977593;28;20264;-76
2023/04/01 04:04:12;;;;;;;2.55;2.42;;;11.30;80.00;;;;;;4979563;28;20181;-77
2023/04/01 04:06:38;;;;;;;2.58;2.47;;;11.40;79.80;;;;;;4978172;28;20181;-77
2023/04/01 04:09:04;;;;;;;5.18;2.47;;;11.40;79.80;;;;;;4979806;28;20186;-77
2023/04/01 04:11:32;;;;;;;3.38;2.42;;;11.40;80.00;;;;;;4978529;28;20571;-77
2023/04/01 04:13:58;;;;;;;2.83;2.63;;;11.40;80.10;;;;;;4981101;28;20315;-77
2023/04/01 04:16:24;;;;;;;2.10;2.00;;;11.40;80.10;;;;;;4979457;28;20308;-77
2023/04/01 04:18:50;;;;;;;6.85;2.20;;;11.40;80.10;;;;;;4981541;28;20270;-77
2023/04/01 04:21:16;;;;;;;2.58;2.33;;;11.40;80.00;;;;;;4979827;28;20186;-76
2023/04/01 04:23:42;;;;;;;8.02;2.80;;;11.40;79.90;;;;;;4980419;28;20190;-77
2023/04/01 04:26:11;;;;;;;5.40;2.92;;;11.40;79.90;;;;;;4976867;28;20209;-77
2023/04/01 04:28:37;;;;;;;3.53;3.20;;;11.40;79.50;;;;;;4977668;28;20753;-77
2023/04/01 04:31:05;;;;;;;2.83;2.70;;;11.40;79.30;;;;;;4984994;28;20197;-77
2023/04/01 04:33:31;;;;;;;8.35;3.53;;;11.40;79.10;;;;;;4977468;28;21387;-77
2023/04/01 04:35:58;;;;;;;6.13;2.72;;;11.40;78.90;;;;;;4982171;28;20189;-76
2023/04/01 04:38:24;;;;;;;2.97;2.00;;;11.40;78.50;;;;;;4977184;28;20193;-77
2023/04/01 04:40:50;;;;;;;2.05;1.95;;;11.30;78.50;;;;;;4974529;28;20280;-77
2023/04/01 04:43:17;;;;;;;1.80;1.80;;;11.30;78.00;;;;;;4976620;28;20261;-77
2023/04/01 04:45:43;;;;;;;3.15;2.05;;;11.40;77.30;;;;;;4979510;28;20260;-77
2023/04/01 04:48:12;;;;;;;5.78;2.50;;;11.40;76.50;;;;;;4983123;28;20198;-77
2023/04/01 04:50:40;;;;;;;5.40;2.58;;;11.40;77.00;;;;;;4986046;28;20353;-77
2023/04/01 04:53:05;;;;;;;2.45;2.25;;;11.30;77.30;;;;;;4980651;28;20239;-77
2023/04/01 04:55:31;;;;;;;2.08;1.98;;;11.30;77.60;;;;;;4981672;28;20204;-77
2023/04/01 04:57:57;;;;;;;6.18;2.17;;;11.30;77.70;;;;;;4984063;28;20178;-77
2023/04/01 05:00:22;;;;;;;5.70;3.03;;;11.30;77.10;;;;;;4980311;28;20218;-77
2023/04/01 05:02:48;;;;;;;2.17;2.08;;;11.40;76.60;;;;;;4978848;28;20232;-78
2023/04/01 05:05:14;;;;;;;3.05;2.05;;;11.30;76.90;;;;;;4989505;28;20209;-77
2023/04/01 05:07:40;;;;;;;2.10;2.03;;;11.20;77.10;;;;;;4984523;28;20181;-76
2023/04/01 05:10:06;;;;;;;2.97;1.80;;;11.20;77.30;;;;;;4976540;28;20305;-78
2023/04/01 05:12:35;;;;;;;1.60;1.60;;;11.10;77.20;;;;;;4982497;28;20178;-82
2023/04/01 05:15:03;;;;;;;1.92;1.83;;;11.10;76.70;;;;;;4981862;28;20779;-81
2023/04/01 05:17:28;;;;;;;3.33;1.40;;;11.00;76.80;;;;;;4984891;28;20193;-77
2023/04/01 05:19:54;;;;;;;1.67;1.40;;;11.00;76.80;;;;;;4982527;28;20217;-81
2023/04/01 05:22:20;;;;;;;2.42;1.77;;;10.90;76.90;;;;;;4980199;28;20185;-77
2023/04/01 05:24:45;;;;;;;3.75;1.92;;;10.90;77.00;;;;;;4983245;28;20241;-77
2023/04/01 05:27:11;;;;;;;4.00;1.98;;;10.80;77.30;;;;;;4980376;28;20185;-77
2023/04/01 05:29:37;;;;;;;1.70;1.60;;;10.80;77.50;;;;;;4981178;28;20183;-77
2023/04/01 05:32:02;;;;;;;3.15;2.28;;;10.70;77.70;;;;;;4981559;28;20186;-77
2023/04/01 05:34:28;;;;;;;2.40;2.30;;;10.70;77.90;;;;;;4979504;28;20707;-77
2023/04/01 05:36:54;;;;;;;5.00;1.85;;;10.70;78.10;;;;;;4983305;28;20716;-78
2023/04/01 05:39:19;;;;;;;4.20;1.70;;;10.70;77.70;;;;;;4982735;28;20872;-77
2023/04/01 05:41:45;;;;;;;2.67;2.47;;;10.70;78.30;;;;;;4982104;28;20281;-77
2023/04/01 05:44:12;;;;;;;3.72;1.98;;;10.70;78.50;;;;;;4981142;28;20185;-77
2023/04/01 05:46:37;;;;;;;2.65;2.47;;;10.80;78.70;;;;;;4980261;28;20248;-78
2023/04/01 05:49:03;;;;;;;2.80;2.10;;;10.80;78.70;;;;;;4984463;28;20811;-77
2023/04/01 05:51:29;;;;;;;2.22;2.03;;;10.90;78.60;;;;;;4984118;28;20182;-77
2023/04/01 05:53:54;;;;;;;5.57;1.75;;;10.90;78.70;;;;;;4981986;28;20204;-77
2023/04/01 05:56:20;;;;;;;2.47;1.75;;;11.00;78.20;;;;;;4977966;28;20192;-77
2023/04/01 05:58:51;;;;;;;2.75;1.58;;;11.10;78.20;;;;;;4981090;28;20265;-77
2023/04/01 06:01:18;;;;;;;2.53;1.95;;;11.30;77.80;;;;;;4979699;28;20189;-77
2023/04/01 06:03:44;;;;;;;1.90;1.80;;;11.40;78.00;;;;;;4981112;28;20237;-77
2023/04/01 06:06:15;;;;;;;1.33;1.20;;;11.60;77.90;;;;;;4984588;28;20189;-77
2023/04/01 06:08:41;;;;;;;3.95;1.40;;;11.80;77.30;;;;;;4984757;28;20182;-77
2023/04/01 06:11:54;;;;;;;1.73;1.15;;;12.00;76.40;;;;;;4979179;28;20187;-77
2023/04/01 06:14:22;;;;;;;1.85;1.75;;;12.20;75.70;;;;;;4918367;29;20299;-76
2023/04/01 06:17:02;;;;;;;1.55;1.52;;;12.50;74.90;;;;;;4913464;29;20188;-77
2023/04/01 06:20:03;;;;;;;1.67;1.58;;;12.70;73.90;;;;;;4914158;29;20626;-77
2023/04/01 06:22:44;;;;;;;2.60;1.23;;;13.00;73.10;;;;;;4910734;29;20517;-77
2023/04/01 06:25:27;;;;;;;1.52;1.40;;;13.20;73.00;;;;;;4913596;29;20211;-77
2023/04/01 06:28:26;;;;;;;4.45;1.58;;;13.40;71.60;;;;;;4913371;29;20656;-78
2023/04/01 06:30:57;;;;;;;1.48;1.08;;;13.60;71.00;;;;;;4909146;29;20306;-77
2023/04/01 06:33:44;;;;;;;2.08;1.40;;;13.80;70.40;;;;;;4914061;29;20219;-77
2023/04/01 06:36:29;;;;;;;1.73;1.17;;;13.90;70.10;;;;;;4913140;29;20689;-78
2023/04/01 06:39:31;;;;;;;1.67;1.40;;;14.10;69.00;;;;;;4914716;29;20200;-77
2023/04/01 06:42:09;;;;;;;2.15;1.10;;;14.30;68.90;;;;;;4913407;29;20191;-78
2023/04/01 06:45:09;;;;;;;1.67;1.58;;;14.40;68.70;;;;;;4911657;29;20264;-76
2023/04/01 06:47:46;;;;;;;1.63;1.52;;;14.50;68.90;;;;;;4887658;29;20247;-76
2023/04/01 06:50:29;;;;;;;1.92;1.50;;;14.60;68.20;;;;;;4896568;29;20788;-78
2023/04/01 06:52:55;;;;;;;1.75;1.63;;;14.70;68.20;;;;;;4903883;29;20184;-76
2023/04/01 06:55:21;;;;;;;1.42;1.42;;;14.70;68.30;;;;;;4922525;29;20224;-78
2023/04/01 06:57:53;;;;;;;2.03;1.60;;;14.70;68.90;;;;;;4920662;29;20189;-76
2023/04/01 07:00:22;;;;;;;5.05;1.70;;;14.70;68.60;;;;;;4919194;29;20219;-77
2023/04/01 07:03:00;;;;;;;2.20;1.58;;;14.70;68.80;;;;;;4919849;29;20192;-77
2023/04/01 07:05:31;;;;;;;2.00;1.90;;;14.70;68.80;;;;;;4918404;29;20309;-76
2023/04/01 07:08:01;;;;;;;4.40;1.52;;;14.70;68.50;;;;;;4920060;29;20686;-77
2023/04/01 07:10:45;;;;;;;2.55;1.55;;;14.80;68.70;;;;;;4914367;29;20284;-76
2023/04/01 07:13:22;;;;;;;1.70;1.63;;;14.80;68.70;;;;;;4920957;29;20196;-76
2023/04/01 07:16:20;;;;;;;1.85;1.75;;;14.90;68.60;;;;;;4915837;29;20243;-76
2023/04/01 07:19:11;;;;;;;2.75;1.50;;;15.00;68.70;;;;;;4908280;29;20204;-78
2023/04/01 07:21:46;;;;;;;1.70;1.55;;;15.00;68.90;;;;;;4905188;29;20592;-76
2023/04/01 07:24:25;;;;;;;2.80;1.80;;;15.00;69.00;;;;;;4932099;29;20203;-76
2023/04/01 07:26:55;;;;;;;1.33;1.23;;;15.00;69.20;;;;;;4914625;29;20187;-77
2023/04/01 07:29:21;;;;;;;1.38;1.38;;;15.10;69.10;;;;;;4918648;29;20669;-77
2023/04/01 07:32:13;;;;;;;1.50;1.27;;;15.20;68.80;;;;;;4931393;29;20187;-77
2023/04/01 07:34:39;;;;;;;1.73;1.63;;;15.30;68.40;;;;;;4860839;29;20202;-77
2023/04/01 07:37:18;;;;;;;1.20;1.20;;;15.40;68.40;;;;;;4863690;29;20233;-77
2023/04/01 07:40:07;;;;;;;2.92;1.95;;;15.50;68.20;;;;;;4861443;29;20226;-77
2023/04/01 07:42:33;;;;;;;2.53;1.75;;;15.70;67.90;;;;;;4864592;29;20201;-75
2023/04/01 07:45:19;;;;;;;3.15;1.83;;;15.80;68.00;;;;;;4864434;29;20209;-75
2023/04/01 07:48:03;;;;;;;1.55;1.48;;;15.90;67.50;;;;;;4859968;29;20204;-82
2023/04/01 07:50:32;;;;;;;1.70;1.60;;;16.00;67.50;;;;;;4867399;29;20303;-82
2023/04/01 07:53:13;;;;;;;3.33;1.65;;;16.00;67.20;;;;;;4865626;29;20237;-82
2023/04/01 07:55:50;;;;;;;1.50;1.40;;;16.00;67.50;;;;;;4885472;29;20275;-79
2023/04/01 07:58:36;;;;;;;1.52;1.42;;;16.00;67.60;;;;;;4899162;29;20613;-80
2023/04/01 08:01:17;;;;;;;2.38;1.92;;;16.00;67.70;;;;;;4887165;29;20366;-79
2023/04/01 08:04:11;;;;;;;1.65;1.55;;;16.00;67.60;;;;;;4896913;29;20193;-76
2023/04/01 08:06:42;;;;;;;1.73;1.65;;;16.00;67.50;;;;;;4899910;29;20290;-74
2023/04/01 08:09:36;;;;;;;1.95;1.80;;;15.90;67.40;;;;;;4897185;29;20248;-75
2023/04/01 08:12:27;;;;;;;3.63;1.80;;;15.90;67.20;;;;;;4944272;28;20240;-76
2023/04/01 08:14:53;;;;;;;2.25;1.73;;;15.90;67.30;;;;;;4980331;28;20242;-74
2023/04/01 08:17:31;;;;;;;2.38;2.17;;;16.00;67.60;;;;;;4979192;28;20178;-75
2023/04/01 08:20:03;;;;;;;2.03;1.75;;;16.00;67.70;;;;;;4978808;28;20222;-75
2023/04/01 08:22:40;;;;;;;3.10;2.08;;;16.20;67.60;;;;;;4979269;28;20216;-78
2023/04/01 08:25:10;;;;;;;4.97;2.33;;;16.30;66.90;;;;;;4977279;28;20562;-77
2023/04/01 08:27:50;;;;;;;3.70;1.95;;;16.40;66.80;;;;;;4981715;28;20583;-77
2023/04/01 08:30:30;;;;;;;4.43;2.08;;;16.50;66.30;;;;;;4976253;28;20185;-75
2023/04/01 08:33:14;;;;;;;1.95;1.85;;;16.70;66.30;;;;;;4982478;28;20557;-76
2023/04/01 08:35:47;;;;;;;2.67;1.75;;;16.90;66.10;;;;;;4975343;28;20182;-76
2023/04/01 08:38:39;;;;;;;2.47;1.70;;;17.10;65.60;;;;;;4980179;28;20197;-79
2023/04/01 08:41:13;;;;;;;2.05;1.98;;;17.30;65.40;;;;;;4979466;28;20237;-78
2023/04/01 08:43:59;;;;;;;2.25;1.55;;;17.70;64.80;;;;;;4978330;28;20209;-77
2023/04/01 08:46:49;;;;;;;2.10;2.00;;;18.10;64.10;;;;;;4977730;28;20264;-78
2023/04/01 08:49:45;;;;;;;1.33;1.20;;;18.60;64.00;;;;;;4981266;28;20189;-79
2023/04/01 08:52:19;;;;;;;3.38;1.65;;;19.40;62.30;;;;;;4976692;28;20209;-77
2023/04/01 08:55:17;;;;;;;1.85;1.75;;;20.60;60.40;;;;;;4979212;28;20209;-80
2023/04/01 08:57:54;;;;;;;1.83;1.45;;;21.80;58.50;;;;;;4978899;28;20208;-75
2023/04/01 09:00:37;;;;;;;3.33;1.63;;;22.80;57.10;;;;;;4979210;28;20213;-77
2023/04/01 09:03:29;;;;;;;1.52;1.42;;;23.90;55.20;;;;;;4979883;28;20692;-80
2023/04/01 09:06:16;;;;;;;2.00;1.60;;;25.00;54.50;;;;;;4976774;28;20633;-76
2023/04/01 09:09:06;;;;;;;3.65;1.48;;;25.40;52.80;;;;;;4976545;28;20201;-79
2023/04/01 09:11:50;;;;;;;2.33;1.20;;;25.30;51.50;;;;;;4978858;28;20247;-79
2023/04/01 09:14:49;;;;;;;2.20;1.67;;;25.20;51.20;;;;;;4977791;28;20745;-78
2023/04/01 09:17:47;;;;;;;1.67;1.55;;;25.00;50.50;;;;;;4979499;28;20185;-79
2023/04/01 09:20:48;;;;;;;1.08;0.90;;;24.60;50.40;;;;;;4944999;29;20226;-78
2023/04/01 09:23:43;;;;;;;3.63;1.25;;;24.30;51.40;;;;;;4930667;29;20186;-76
2023/04/01 09:26:44;;;;;;;3.67;1.15;;;24.00;52.80;;;;;;4891871;29;20189;-76
2023/04/01 09:29:37;;;;;;;2.13;1.20;;;23.80;51.80;;;;;;4906394;29;20184;-78
2023/04/01 09:32:40;;;;;;;2.20;1.40;;;23.40;51.20;;;;;;4907160;29;20371;-78
2023/04/01 09:35:42;;;;;;;2.53;1.13;;;23.00;52.30;;;;;;4908576;29;20228;-79
2023/04/01 09:38:28;;;;;;;2.65;1.08;;;22.90;52.70;;;;;;4910064;29;20629;-78
2023/04/01 09:40:58;;;;;;;1.27;0.95;;;22.70;53.30;;;;;;4892836;29;20231;-79
2023/04/01 09:43:37;;;;;;;1.85;1.27;;;22.70;53.50;;;;;;4906451;29;20201;-74
2023/04/01 09:46:20;;;;;;;0.88;0.88;;;22.70;53.70;;;;;;4908602;29;20212;-76
2023/04/01 09:48:46;;;;;;;1.20;1.08;;;22.70;53.00;;;;;;4906116;29;20689;-76
2023/04/01 09:51:17;;;;;;;3.13;1.00;;;22.70;53.20;;;;;;4902656;29;20228;-78
2023/04/01 09:54:19;;;;;;;1.23;1.02;;;22.90;53.70;;;;;;4904657;29;20280;-76
2023/04/01 09:57:10;;;;;;;0.80;0.80;;;23.30;53.20;;;;;;4876500;29;20193;-76
2023/04/01 09:59:41;;;;;;;2.55;0.93;;;23.70;52.40;;;;;;4888578;29;20300;-76
2023/04/01 10:02:44;;;;;;;1.15;1.08;;;24.30;52.30;;;;;;4904844;29;20212;-77
2023/04/01 10:05:40;;;;;;;2.40;1.20;;;24.80;50.30;;;;;;4945767;29;20194;-79
2023/04/01 10:08:52;;;;;;;2.50;0.80;;;25.10;50.10;;;;;;4930100;29;20246;-79
2023/04/01 10:11:41;;;;;;;2.90;1.27;;;25.50;50.40;;;;;;4945805;29;20215;-78
2023/04/01 10:14:10;;;;;;;1.70;1.10;;;25.90;49.00;;;;;;4945499;29;20211;-79
2023/04/01 10:17:10;;;;;;;1.20;1.20;;;26.00;49.30;;;;;;4942171;29;20196;-79
2023/04/01 10:20:13;;;;;;;1.15;0.95;;;25.90;48.90;;;;;;4945207;29;20217;-80
2023/04/01 10:23:06;;;;;;;0.80;0.80;;;25.60;48.60;;;;;;4948347;29;20206;-80
2023/04/01 10:26:00;;;;;;;2.40;1.00;;;25.30;48.70;;;;;;4933019;29;20180;-80
2023/04/01 10:28:49;;;;;;;2.35;1.35;;;25.10;49.50;;;;;;4944378;29;20205;-78
2023/04/01 10:31:52;;;;;;;1.35;1.27;;;25.00;50.90;;;;;;4946085;29;20192;-79
2023/04/01 10:34:55;;;;;;;3.58;1.15;;;25.00;50.70;;;;;;4975320;28;20284;-80
2023/04/01 10:37:58;;;;;;;2.17;1.25;;;24.80;50.20;;;;;;4990257;28;20174;-79
2023/04/01 10:40:43;;;;;;;1.45;1.20;;;24.20;51.20;;;;;;4987503;28;20214;-79
2023/04/01 10:43:36;;;;;;;1.75;0.80;;;23.80;52.40;;;;;;4990377;28;20178;-79
2023/04/01 10:46:16;;;;;;;0.80;0.80;;;23.50;52.20;;;;;;4989672;28;20201;-80
2023/04/01 10:49:10;;;;;;;1.77;1.17;;;23.20;52.50;;;;;;4989549;28;20176;-79
2023/04/01 10:52:13;;;;;;;3.45;1.30;;;22.90;53.00;;;;;;4990351;28;20662;-79
2023/04/01 10:55:03;;;;;;;1.40;1.20;;;22.40;53.40;;;;;;4987253;28;20181;-79
2023/04/01 10:57:58;;;;;;;0.90;0.90;;;22.10;54.00;;;;;;4991584;28;20205;-79
2023/04/01 11:00:42;;;;;;;1.52;1.20;;;21.90;54.30;;;;;;4988391;28;20308;-79
2023/04/01 11:03:26;;;;;;;0.88;0.88;;;21.70;54.70;;;;;;4992484;28;20182;-79
2023/04/01 11:06:01;;;;;;;1.52;1.45;;;21.50;55.00;;;;;;4994881;28;20182;-79
2023/04/01 11:08:38;;;;;;;1.85;1.67;;;21.40;55.50;;;;;;4991299;28;20183;-79
2023/04/01 11:11:23;;;;;;;4.10;1.50;;;21.30;55.80;;;;;;4992362;28;20262;-81
2023/04/01 11:14:34;;;;;;;1.20;1.13;;;21.30;56.10;;;;;;4988074;28;20171;-80
2023/04/01 11:17:15;;;;;;;1.50;1.40;;;21.20;56.10;;;;;;4990756;28;20710;-80
2023/04/01 11:19:56;;;;;;;3.45;1.40;;;21.00;56.00;;;;;;4992598;28;20236;-78
2023/04/01 11:22:31;;;;;;;1.48;1.38;;;20.90;56.50;;;;;;4992965;28;20208;-79
2023/04/01 11:25:05;;;;;;;2.38;1.10;;;20.70;56.50;;;;;;4993862;28;20177;-80
2023/04/01 11:27:52;;;;;;;0.95;0.95;;;20.60;56.70;;;;;;4986644;28;20256;-80
2023/04/01 11:30:33;;;;;;;0.93;0.50;;;20.50;56.30;;;;;;4993128;28;20186;-80
2023/04/01 11:33:01;;;;;;;1.38;0.40;;;20.00;54.30;;;;;;4987941;28;20170;-79
2023/04/01 11:35:36;;;;;;;1.55;0.68;;;19.50;56.00;;;;;;4987466;28;20185;-80
2023/04/01 11:38:39;;;;;;;0.57;0.40;;;19.00;59.00;;;;;;4989179;28;20268;-80
2023/04/01 11:41:42;;;;;;;1.67;0.55;;;18.30;59.80;;;;;;4994058;28;20212;-80
2023/04/01 11:44:24;;;;;;;0.50;0.50;;;17.50;62.30;;;;;;4985796;28;20239;-79
2023/04/01 11:47:11;;;;;;;1.95;0.40;;;17.20;64.60;;;;;;4984839;28;20186;-79
2023/04/01 11:50:15;;;;;;;0.38;0.38;;;16.80;66.60;;;;;;4980894;28;20177;-79
2023/04/01 11:52:55;;;;;;;1.13;0.70;;;16.20;71.20;;;;;;4985236;28;20190;-78
2023/04/01 11:55:40;;;;;;;1.25;0.50;;;15.60;74.40;;;;;;4981596;28;20186;-80
2023/04/01 11:58:15;;;;;;;0.57;0.57;;;14.90;77.40;;;;;;4978293;28;20269;-79
2023/04/01 12:01:12;;;;;;;0.50;0.50;;;14.30;79.50;;;;;;4979630;28;20217;-79
2023/04/01 12:04:32;;;;;;;2.22;0.55;;;13.90;79.80;;;;;;4977616;28;20186;-79
2023/04/01 12:07:23;;;;;;;0.43;0.43;;;13.60;80.50;;;;;;4938092;29;20670;-79
2023/04/01 12:09:55;;;;;;;2.60;0.50;;;13.30;81.90;;;;;;4940888;29;20188;-79
2023/04/01 12:12:42;;;;;;;0.75;0.68;;;13.10;83.00;;;;;;4943611;29;20183;-79
2023/04/01 12:15:25;;;;;;;0.40;0.40;;;12.90;84.60;;;;;;4950274;29;20263;-79
2023/04/01 12:18:10;;;;;;;0.60;0.60;;;12.80;85.00;;;;;;4944014;29;20197;-79
2023/04/01 12:20:51;;;;;;;0.50;0.50;;;12.90;86.40;;;;;;4949895;29;20218;-79
2023/04/01 12:23:36;;;;;;;0.88;0.88;;;13.20;85.60;;;;;;4949456;29;20236;-78
2023/04/01 12:26:21;;;;;;;0.60;0.60;;;13.60;86.60;;;;;;4950365;29;20198;-78
2023/04/01 12:29:24;;;;;;;0.52;0.52;;;14.00;85.20;;;;;;4948719;29;20222;-78
2023/04/01 12:32:34;;;;;;;5.50;1.13;;;14.60;84.70;;;;;;4934713;29;20652;-79
2023/04/01 12:35:26;;;;;;;1.90;1.33;;;14.90;82.70;;;;;;4893573;29;20339;-79
2023/04/01 12:38:22;;;;;;;1.05;1.05;;;15.00;83.10;;;;;;4894116;29;20793;-80
2023/04/01 12:41:12;;;;;;;0.73;0.73;;;15.00;83.60;;;;;;4901537;29;20698;-81
2023/04/01 12:44:09;;;;;;;1.25;0.90;;;15.00;83.30;;;;;;4926100;29;20203;-81
2023/04/01 12:47:16;;;;;;;0.57;0.57;;;14.90;82.90;;;;;;4920451;29;20195;-82
2023/04/01 12:50:16;;;;;;;3.08;0.77;;;14.70;83.60;;;;;;4921984;29;20335;-79
2023/04/01 12:53:06;;;;;;;0.68;0.68;;;14.50;84.70;;;;;;4921984;29;20219;-79
2023/04/01 12:55:52;;;;;;;0.55;0.55;;;14.50;85.10;;;;;;4918703;29;20203;-80
2023/04/01 12:58:49;;;;;;;1.10;0.60;;;14.40;85.20;;;;;;4924711;29;20580;-78
2023/04/01 13:01:35;;;;;;;0.80;0.80;;;14.40;85.20;;;;;;4923017;29;20221;-77
2023/04/01 13:04:31;;;;;;;3.85;0.65;;;14.30;85.80;;;;;;4923953;29;20222;-78
2023/04/01 13:06:57;;;;;;;0.82;0.82;;;14.30;85.80;;;;;;4930432;29;20198;-79
2023/04/01 13:09:25;;;;;;;1.83;0.98;;;14.20;85.10;;;;;;4934022;29;20187;-79
2023/04/01 13:12:07;;;;;;;1.25;0.90;;;14.10;86.10;;;;;;4962064;28;20635;-79
2023/04/01 13:15:06;;;;;;;0.90;0.90;;;14.10;86.00;;;;;;4983207;28;20244;-80
2023/04/01 13:17:47;;;;;;;0.70;0.70;;;14.20;86.10;;;;;;4983876;28;20297;-80
2023/04/01 13:20:36;;;;;;;1.10;1.10;;;14.40;86.00;;;;;;4985734;28;20269;-79
2023/04/01 13:23:19;;;;;;;5.57;0.90;;;14.90;85.70;;;;;;4984468;28;20652;-80
2023/04/01 13:26:03;;;;;;;1.10;0.82;;;15.70;87.50;;;;;;4983687;28;20275;-79
2023/04/01 13:28:41;;;;;;;2.78;1.20;;;16.60;87.60;;;;;;4980783;28;20684;-78
2023/04/01 13:31:35;;;;;;;1.00;1.00;;;17.90;83.60;;;;;;4982191;28;20198;-77
2023/04/01 13:34:13;;;;;;;0.73;0.73;;;19.00;78.40;;;;;;4979402;28;20285;-76
2023/04/01 13:37:06;;;;;;;0.95;0.90;;;19.60;73.60;;;;;;4985160;28;20192;-77
2023/04/01 13:39:35;;;;;;;1.38;1.17;;;20.30;71.90;;;;;;4981969;28;20217;-78
2023/04/01 13:42:24;;;;;;;0.90;0.90;;;20.90;70.60;;;;;;4982960;28;20531;-78